sensor_id;sensor_type;location;lat;lon;timestamp;pressure;altitude;pressure_sealevel;temperature;humidity
70841;BME280;58465;51.534;9.934;2023-05-16T00:00:48;99664.31;;;14.29;69.36
70841;BME280;58465;51.534;9.934;2023-05-16T00:03:17;99673.84;;;13.94;70.60
70841;BME280;58465;51.534;9.934;2023-05-16T00:05:42;99669.75;;;13.86;70.93
70841;BME280;58465;51.534;9.934;2023-05-16T00:08:07;99670.41;;;13.92;70.91
70841;BME280;58465;51.534;9.934;2023-05-16T00:10:34;99674.63;;;13.98;70.40
70841;BME280;58465;51.534;9.934;2023-05-16T00:12:59;99675.06;;;13.87;70.36
70841;BME280;58465;51.534;9.934;2023-05-16T00:15:28;99673.84;;;13.94;69.96
70841;BME280;58465;51.534;9.934;2023-05-16T00:17:54;99681.97;;;13.72;69.98
70841;BME280;58465;51.534;9.934;2023-05-16T00:20:22;99685.06;;;13.62;69.97
70841;BME280;58465;51.534;9.934;2023-05-16T00:22:49;99684.25;;;13.60;69.87
70841;BME280;58465;51.534;9.934;2023-05-16T00:25:14;99676.22;;;13.60;69.84
70841;BME280;58465;51.534;9.934;2023-05-16T00:27:40;99683.06;;;13.67;69.24
70841;BME280;58465;51.534;9.934;2023-05-16T00:30:06;99689.00;;;13.53;69.40
70841;BME280;58465;51.534;9.934;2023-05-16T00:32:31;99685.56;;;13.50;69.39
70841;BME280;58465;51.534;9.934;2023-05-16T00:34:56;99686.78;;;13.64;69.75
70841;BME280;58465;51.534;9.934;2023-05-16T00:37:23;99690.38;;;13.42;69.89
70841;BME280;58465;51.534;9.934;2023-05-16T00:39:48;99694.84;;;13.41;70.11
70841;BME280;58465;51.534;9.934;2023-05-16T00:42:14;99688.56;;;13.42;70.02
70841;BME280;58465;51.534;9.934;2023-05-16T00:44:39;99691.81;;;13.50;70.30
70841;BME280;58465;51.534;9.934;2023-05-16T00:47:05;99687.13;;;13.33;69.95
70841;BME280;58465;51.534;9.934;2023-05-16T00:49:30;99689.59;;;13.38;69.96
70841;BME280;58465;51.534;9.934;2023-05-16T00:51:57;99690.81;;;13.53;69.87
70841;BME280;58465;51.534;9.934;2023-05-16T00:54:23;99681.88;;;13.52;69.80
70841;BME280;58465;51.534;9.934;2023-05-16T00:56:51;99683.88;;;13.69;68.92
70841;BME280;58465;51.534;9.934;2023-05-16T00:59:17;99693.50;;;13.53;69.28
70841;BME280;58465;51.534;9.934;2023-05-16T01:01:45;99697.34;;;13.46;69.05
70841;BME280;58465;51.534;9.934;2023-05-16T01:04:12;99697.63;;;13.61;68.72
70841;BME280;58465;51.534;9.934;2023-05-16T01:06:38;99700.72;;;13.51;69.00
70841;BME280;58465;51.534;9.934;2023-05-16T01:09:03;99700.16;;;13.43;69.07
70841;BME280;58465;51.534;9.934;2023-05-16T01:11:43;99703.22;;;13.33;68.83
70841;BME280;58465;51.534;9.934;2023-05-16T01:17:20;99714.66;;;13.37;68.72
70841;BME280;58465;51.534;9.934;2023-05-16T01:19:59;99714.66;;;13.37;68.99
70841;BME280;58465;51.534;9.934;2023-05-16T01:22:51;99714.75;;;13.35;68.18
70841;BME280;58465;51.534;9.934;2023-05-16T01:25:37;99719.50;;;13.27;68.34
70841;BME280;58465;51.534;9.934;2023-05-16T01:28:03;99715.56;;;13.14;68.62
70841;BME280;58465;51.534;9.934;2023-05-16T01:30:37;99718.88;;;13.21;68.83
70841;BME280;58465;51.534;9.934;2023-05-16T01:33:02;99726.06;;;13.20;68.63
70841;BME280;58465;51.534;9.934;2023-05-16T01:35:29;99718.13;;;13.17;68.32
70841;BME280;58465;51.534;9.934;2023-05-16T01:38:06;99721.50;;;13.22;68.21
70841;BME280;58465;51.534;9.934;2023-05-16T01:41:15;99725.16;;;12.96;69.26
70841;BME280;58465;51.534;9.934;2023-05-16T01:43:45;99719.59;;;13.01;68.98
70841;BME280;58465;51.534;9.934;2023-05-16T01:46:24;99720.88;;;12.91;69.42
70841;BME280;58465;51.534;9.934;2023-05-16T01:49:19;99725.41;;;12.89;69.35
70841;BME280;58465;51.534;9.934;2023-05-16T01:52:00;99738.38;;;13.01;69.22
70841;BME280;58465;51.534;9.934;2023-05-16T01:54:30;99728.88;;;12.92;69.34
70841;BME280;58465;51.534;9.934;2023-05-16T01:56:56;99735.88;;;12.72;69.91
70841;BME280;58465;51.534;9.934;2023-05-16T01:59:43;99730.22;;;12.56;70.22
70841;BME280;58465;51.534;9.934;2023-05-16T02:02:09;99739.34;;;12.75;69.82
70841;BME280;58465;51.534;9.934;2023-05-16T02:04:35;99738.50;;;12.73;69.38
70841;BME280;58465;51.534;9.934;2023-05-16T02:07:00;99746.41;;;12.78;69.72
70841;BME280;58465;51.534;9.934;2023-05-16T02:09:26;99746.84;;;12.66;69.57
70841;BME280;58465;51.534;9.934;2023-05-16T02:11:51;99750.25;;;12.69;69.44
70841;BME280;58465;51.534;9.934;2023-05-16T02:14:16;99748.69;;;12.39;70.01
70841;BME280;58465;51.534;9.934;2023-05-16T02:16:42;99758.72;;;12.32;70.35
70841;BME280;58465;51.534;9.934;2023-05-16T02:19:07;99752.59;;;12.29;70.88
70841;BME280;58465;51.534;9.934;2023-05-16T02:21:33;99749.25;;;12.22;70.77
70841;BME280;58465;51.534;9.934;2023-05-16T02:23:58;99747.25;;;12.29;70.46
70841;BME280;58465;51.534;9.934;2023-05-16T02:26:23;99746.31;;;12.30;70.27
70841;BME280;58465;51.534;9.934;2023-05-16T02:28:48;99750.38;;;12.15;70.55
70841;BME280;58465;51.534;9.934;2023-05-16T02:31:34;99748.44;;;12.20;70.18
70841;BME280;58465;51.534;9.934;2023-05-16T02:34:00;99752.41;;;12.08;71.02
70841;BME280;58465;51.534;9.934;2023-05-16T02:36:27;99753.16;;;12.12;70.39
70841;BME280;58465;51.534;9.934;2023-05-16T02:38:52;99745.13;;;12.12;70.67
70841;BME280;58465;51.534;9.934;2023-05-16T02:41:18;99752.38;;;12.35;69.88
70841;BME280;58465;51.534;9.934;2023-05-16T02:43:44;99748.78;;;12.36;69.57
70841;BME280;58465;51.534;9.934;2023-05-16T02:46:21;99758.94;;;12.51;69.06
70841;BME280;58465;51.534;9.934;2023-05-16T02:48:46;99759.59;;;12.59;68.76
70841;BME280;58465;51.534;9.934;2023-05-16T02:51:11;99765.09;;;12.54;68.76
70841;BME280;58465;51.534;9.934;2023-05-16T02:53:36;99760.88;;;12.21;69.64
70841;BME280;58465;51.534;9.934;2023-05-16T02:56:02;99774.22;;;12.22;69.85
70841;BME280;58465;51.534;9.934;2023-05-16T02:58:30;99768.19;;;12.16;70.06
70841;BME280;58465;51.534;9.934;2023-05-16T03:00:56;99771.09;;;12.36;69.37
70841;BME280;58465;51.534;9.934;2023-05-16T03:03:22;99772.63;;;12.17;69.80
70841;BME280;58465;51.534;9.934;2023-05-16T03:05:47;99771.59;;;12.21;69.95
70841;BME280;58465;51.534;9.934;2023-05-16T03:08:13;99770.25;;;12.08;69.88
70841;BME280;58465;51.534;9.934;2023-05-16T03:10:38;99769.06;;;12.16;69.88
70841;BME280;58465;51.534;9.934;2023-05-16T03:13:03;99769.75;;;12.23;69.98
70841;BME280;58465;51.534;9.934;2023-05-16T03:15:29;99768.19;;;12.16;69.58
70841;BME280;58465;51.534;9.934;2023-05-16T03:17:54;99775.13;;;12.21;69.98
70841;BME280;58465;51.534;9.934;2023-05-16T03:20:23;99768.72;;;12.27;69.89
70841;BME280;58465;51.534;9.934;2023-05-16T03:22:48;99787.59;;;12.22;69.89
70841;BME280;58465;51.534;9.934;2023-05-16T03:25:13;99785.34;;;12.37;69.70
70841;BME280;58465;51.534;9.934;2023-05-16T03:27:39;99792.50;;;12.36;69.57
70841;BME280;58465;51.534;9.934;2023-05-16T03:30:05;99800.13;;;12.22;70.12
70841;BME280;58465;51.534;9.934;2023-05-16T03:32:32;99800.06;;;12.23;70.24
70841;BME280;58465;51.534;9.934;2023-05-16T03:34:57;99797.31;;;12.26;71.36
70841;BME280;58465;51.534;9.934;2023-05-16T03:37:22;99797.25;;;12.28;70.63
70841;BME280;58465;51.534;9.934;2023-05-16T03:39:47;99797.34;;;12.25;71.27
70841;BME280;58465;51.534;9.934;2023-05-16T03:42:13;99804.53;;;12.23;71.98
70841;BME280;58465;51.534;9.934;2023-05-16T03:44:38;99810.44;;;12.34;71.63
70841;BME280;58465;51.534;9.934;2023-05-16T03:47:03;99808.66;;;12.33;71.84
70841;BME280;58465;51.534;9.934;2023-05-16T03:49:29;99807.47;;;12.42;71.57
70841;BME280;58465;51.534;9.934;2023-05-16T03:51:54;99814.72;;;12.12;70.85
70841;BME280;58465;51.534;9.934;2023-05-16T03:54:20;99812.41;;;12.29;71.12
70841;BME280;58465;51.534;9.934;2023-05-16T03:56:46;99812.34;;;12.03;71.59
70841;BME280;58465;51.534;9.934;2023-05-16T03:59:11;99808.41;;;12.14;71.45
70841;BME280;58465;51.534;9.934;2023-05-16T04:01:37;99815.47;;;12.17;71.26
70841;BME280;58465;51.534;9.934;2023-05-16T04:04:02;99809.66;;;12.03;71.48
70841;BME280;58465;51.534;9.934;2023-05-16T04:06:27;99823.63;;;12.12;71.22
70841;BME280;58465;51.534;9.934;2023-05-16T04:08:53;99821.44;;;12.25;71.13
70841;BME280;58465;51.534;9.934;2023-05-16T04:11:18;99816.00;;;12.28;71.14
70841;BME280;58465;51.534;9.934;2023-05-16T04:13:44;99830.00;;;12.36;71.21
70841;BME280;58465;51.534;9.934;2023-05-16T04:16:09;99833.00;;;12.27;71.44
70841;BME280;58465;51.534;9.934;2023-05-16T04:18:34;99831.19;;;12.27;72.15
70841;BME280;58465;51.534;9.934;2023-05-16T04:21:00;99844.09;;;12.15;73.89
70841;BME280;58465;51.534;9.934;2023-05-16T04:23:26;99847.44;;;12.21;74.05
70841;BME280;58465;51.534;9.934;2023-05-16T04:25:51;99849.16;;;11.96;75.56
70841;BME280;58465;51.534;9.934;2023-05-16T04:28:17;99850.94;;;11.96;75.69
70841;BME280;58465;51.534;9.934;2023-05-16T04:30:42;99848.56;;;11.86;76.35
70841;BME280;58465;51.534;9.934;2023-05-16T04:33:07;99848.56;;;11.86;76.16
70841;BME280;58465;51.534;9.934;2023-05-16T04:35:33;99845.84;;;11.88;76.66
70841;BME280;58465;51.534;9.934;2023-05-16T04:37:58;99857.19;;;11.96;76.25
70841;BME280;58465;51.534;9.934;2023-05-16T04:40:23;99851.19;;;11.88;76.19
70841;BME280;58465;51.534;9.934;2023-05-16T04:42:59;99855.66;;;11.87;76.15
70841;BME280;58465;51.534;9.934;2023-05-16T04:45:24;99856.50;;;11.89;75.47
70841;BME280;58465;51.534;9.934;2023-05-16T04:47:50;99861.53;;;12.00;75.65
70841;BME280;58465;51.534;9.934;2023-05-16T04:50:16;99862.00;;;11.83;74.86
70841;BME280;58465;51.534;9.934;2023-05-16T04:52:42;99865.84;;;12.04;74.76
70841;BME280;58465;51.534;9.934;2023-05-16T04:55:08;99873.44;;;11.90;75.01
70841;BME280;58465;51.534;9.934;2023-05-16T04:57:33;99878.53;;;11.98;74.65
70841;BME280;58465;51.534;9.934;2023-05-16T04:59:58;99878.34;;;12.04;74.61
70841;BME280;58465;51.534;9.934;2023-05-16T05:02:24;99879.97;;;11.80;74.34
70841;BME280;58465;51.534;9.934;2023-05-16T05:04:49;99880.50;;;11.62;74.51
70841;BME280;58465;51.534;9.934;2023-05-16T05:07:14;99892.22;;;11.88;74.68
70841;BME280;58465;51.534;9.934;2023-05-16T05:09:39;99892.00;;;11.95;74.81
70841;BME280;58465;51.534;9.934;2023-05-16T05:12:07;99893.69;;;12.26;73.76
70841;BME280;58465;51.534;9.934;2023-05-16T05:14:32;99902.25;;;12.10;73.58
70841;BME280;58465;51.534;9.934;2023-05-16T05:16:58;99891.72;;;12.04;72.86
70841;BME280;58465;51.534;9.934;2023-05-16T05:19:23;99898.44;;;12.18;73.18
70841;BME280;58465;51.534;9.934;2023-05-16T05:21:48;99894.88;;;12.18;73.45
70841;BME280;58465;51.534;9.934;2023-05-16T05:24:14;99904.78;;;12.14;73.24
70841;BME280;58465;51.534;9.934;2023-05-16T05:26:39;99901.94;;;12.20;73.04
70841;BME280;58465;51.534;9.934;2023-05-16T05:29:05;99904.31;;;12.30;72.75
70841;BME280;58465;51.534;9.934;2023-05-16T05:31:30;99906.28;;;12.23;72.19
70841;BME280;58465;51.534;9.934;2023-05-16T05:33:57;99899.63;;;12.36;72.00
70841;BME280;58465;51.534;9.934;2023-05-16T05:36:23;99905.78;;;12.40;71.69
70841;BME280;58465;51.534;9.934;2023-05-16T05:38:48;99915.19;;;12.51;70.99
70841;BME280;58465;51.534;9.934;2023-05-16T05:41:13;99912.53;;;12.51;69.72
70841;BME280;58465;51.534;9.934;2023-05-16T05:43:38;99912.03;;;12.67;69.31
70841;BME280;58465;51.534;9.934;2023-05-16T05:46:04;99918.63;;;12.56;69.10
70841;BME280;58465;51.534;9.934;2023-05-16T05:48:30;99919.06;;;12.43;69.19
70841;BME280;58465;51.534;9.934;2023-05-16T05:50:56;99916.88;;;12.27;68.87
70841;BME280;58465;51.534;9.934;2023-05-16T05:53:22;99922.53;;;12.46;68.68
70841;BME280;58465;51.534;9.934;2023-05-16T05:55:47;99927.78;;;12.49;68.55
70841;BME280;58465;51.534;9.934;2023-05-16T05:58:13;99923.00;;;12.31;67.01
70841;BME280;58465;51.534;9.934;2023-05-16T06:00:38;99925.44;;;12.39;67.91
70841;BME280;58465;51.534;9.934;2023-05-16T06:03:03;99930.94;;;12.62;67.25
70841;BME280;58465;51.534;9.934;2023-05-16T06:05:41;99944.78;;;12.48;66.89
70841;BME280;58465;51.534;9.934;2023-05-16T06:08:07;99950.06;;;12.50;67.16
70841;BME280;58465;51.534;9.934;2023-05-16T06:10:32;99948.22;;;12.24;67.78
70841;BME280;58465;51.534;9.934;2023-05-16T06:12:58;99950.47;;;12.38;67.23
70841;BME280;58465;51.534;9.934;2023-05-16T06:15:24;99950.06;;;12.22;66.56
70841;BME280;58465;51.534;9.934;2023-05-16T06:17:53;99954.59;;;12.20;66.23
70841;BME280;58465;51.534;9.934;2023-05-16T06:20:18;99957.94;;;12.56;65.38
70841;BME280;58465;51.534;9.934;2023-05-16T06:22:53;99962.38;;;12.57;64.52
70841;BME280;58465;51.534;9.934;2023-05-16T06:25:18;99959.34;;;12.94;64.10
70841;BME280;58465;51.534;9.934;2023-05-16T06:27:44;99964.44;;;12.75;64.30
70841;BME280;58465;51.534;9.934;2023-05-16T06:30:16;99969.63;;;12.80;64.19
70841;BME280;58465;51.534;9.934;2023-05-16T06:32:41;99967.97;;;12.77;64.47
70841;BME280;58465;51.534;9.934;2023-05-16T06:35:07;99974.59;;;12.66;65.26
70841;BME280;58465;51.534;9.934;2023-05-16T06:37:36;99982.69;;;12.90;64.29
70841;BME280;58465;51.534;9.934;2023-05-16T06:40:01;99987.91;;;12.95;63.66
70841;BME280;58465;51.534;9.934;2023-05-16T06:42:27;99982.50;;;12.96;62.95
70841;BME280;58465;51.534;9.934;2023-05-16T06:44:52;99995.34;;;12.87;62.73
70841;BME280;58465;51.534;9.934;2023-05-16T06:47:19;99988.28;;;12.84;63.17
70841;BME280;58465;51.534;9.934;2023-05-16T06:49:47;99988.44;;;13.06;62.19
70841;BME280;58465;51.534;9.934;2023-05-16T06:52:13;99995.84;;;12.98;61.34
70841;BME280;58465;51.534;9.934;2023-05-16T06:54:41;100006.88;;;12.89;61.41
70841;BME280;58465;51.534;9.934;2023-05-16T06:57:09;100002.50;;;12.86;61.54
70841;BME280;58465;51.534;9.934;2023-05-16T06:59:35;99993.25;;;12.69;61.44
70841;BME280;58465;51.534;9.934;2023-05-16T07:02:01;100000.13;;;12.77;61.65
70841;BME280;58465;51.534;9.934;2023-05-16T07:04:27;100016.66;;;12.90;60.63
70841;BME280;58465;51.534;9.934;2023-05-16T07:06:53;100020.34;;;12.87;60.01
70841;BME280;58465;51.534;9.934;2023-05-16T07:09:19;100009.91;;;13.06;60.02
70841;BME280;58465;51.534;9.934;2023-05-16T07:11:45;100015.75;;;13.19;59.60
70841;BME280;58465;51.534;9.934;2023-05-16T07:14:10;100013.34;;;13.36;59.29
70841;BME280;58465;51.534;9.934;2023-05-16T07:16:36;100015.16;;;13.62;58.44
70841;BME280;58465;51.534;9.934;2023-05-16T07:19:01;100011.06;;;14.23;57.31
70841;BME280;58465;51.534;9.934;2023-05-16T07:21:26;100018.16;;;13.53;57.83
70841;BME280;58465;51.534;9.934;2023-05-16T07:23:52;100016.53;;;13.47;58.68
70841;BME280;58465;51.534;9.934;2023-05-16T07:26:17;100020.66;;;13.32;59.24
70841;BME280;58465;51.534;9.934;2023-05-16T07:28:43;100028.31;;;13.17;59.71
70841;BME280;58465;51.534;9.934;2023-05-16T07:31:08;100032.78;;;12.60;60.37
70841;BME280;58465;51.534;9.934;2023-05-16T07:33:33;100027.63;;;12.54;60.77
70841;BME280;58465;51.534;9.934;2023-05-16T07:35:59;100021.75;;;12.42;61.48
70841;BME280;58465;51.534;9.934;2023-05-16T07:38:25;100031.19;;;12.55;61.07
70841;BME280;58465;51.534;9.934;2023-05-16T07:40:50;100025.88;;;12.24;60.92
70841;BME280;58465;51.534;9.934;2023-05-16T07:43:16;100033.47;;;12.39;60.95
70841;BME280;58465;51.534;9.934;2023-05-16T07:45:41;100045.47;;;12.55;60.48
70841;BME280;58465;51.534;9.934;2023-05-16T07:48:07;100047.63;;;13.00;59.49
70841;BME280;58465;51.534;9.934;2023-05-16T07:50:32;100046.66;;;13.02;58.50
70841;BME280;58465;51.534;9.934;2023-05-16T07:52:59;100058.19;;;13.32;58.31
70841;BME280;58465;51.534;9.934;2023-05-16T07:55:24;100055.53;;;13.32;57.81
70841;BME280;58465;51.534;9.934;2023-05-16T07:57:49;100056.19;;;13.11;58.04
70841;BME280;58465;51.534;9.934;2023-05-16T08:00:16;100043.19;;;13.53;56.15
70841;BME280;58465;51.534;9.934;2023-05-16T08:02:41;100051.69;;;13.91;55.47
70841;BME280;58465;51.534;9.934;2023-05-16T08:05:07;100047.75;;;14.01;54.73
70841;BME280;58465;51.534;9.934;2023-05-16T08:07:33;100046.19;;;13.94;53.70
70841;BME280;58465;51.534;9.934;2023-05-16T08:09:58;100057.16;;;13.88;54.90
70841;BME280;58465;51.534;9.934;2023-05-16T08:12:25;100053.38;;;14.18;53.12
70841;BME280;58465;51.534;9.934;2023-05-16T08:14:51;100050.91;;;13.62;53.87
70841;BME280;58465;51.534;9.934;2023-05-16T08:17:17;100056.84;;;13.72;54.56
70841;BME280;58465;51.534;9.934;2023-05-16T08:19:43;100052.16;;;13.77;53.70
70841;BME280;58465;51.534;9.934;2023-05-16T08:22:09;100057.06;;;13.91;53.86
70841;BME280;58465;51.534;9.934;2023-05-16T08:24:35;100065.84;;;14.44;53.12
70841;BME280;58465;51.534;9.934;2023-05-16T08:27:00;100068.19;;;14.76;50.61
70841;BME280;58465;51.534;9.934;2023-05-16T08:29:28;100069.03;;;14.05;50.98
70841;BME280;58465;51.534;9.934;2023-05-16T08:31:53;100076.41;;;14.00;50.81
70841;BME280;58465;51.534;9.934;2023-05-16T08:34:21;100072.09;;;14.44;50.54
70841;BME280;58465;51.534;9.934;2023-05-16T08:36:46;100073.34;;;14.11;50.17
70841;BME280;58465;51.534;9.934;2023-05-16T08:39:15;100073.31;;;13.86;50.58
70841;BME280;58465;51.534;9.934;2023-05-16T08:41:40;100081.50;;;14.56;48.55
70841;BME280;58465;51.534;9.934;2023-05-16T08:44:06;100075.94;;;14.84;47.11
70841;BME280;58465;51.534;9.934;2023-05-16T08:46:32;100076.53;;;14.45;47.73
70841;BME280;58465;51.534;9.934;2023-05-16T08:48:59;100071.34;;;14.88;45.78
70841;BME280;58465;51.534;9.934;2023-05-16T08:51:27;100075.16;;;15.26;45.26
70841;BME280;58465;51.534;9.934;2023-05-16T08:54:02;100070.59;;;15.06;44.91
70841;BME280;58465;51.534;9.934;2023-05-16T08:56:28;100077.16;;;14.99;43.48
70841;BME280;58465;51.534;9.934;2023-05-16T08:59:01;100073.59;;;14.98;42.41
70841;BME280;58465;51.534;9.934;2023-05-16T09:01:27;100082.09;;;14.88;42.43
70841;BME280;58465;51.534;9.934;2023-05-16T09:03:52;100078.88;;;14.78;41.44
70841;BME280;58465;51.534;9.934;2023-05-16T09:06:18;100081.00;;;14.92;40.90
70841;BME280;58465;51.534;9.934;2023-05-16T09:08:45;100085.59;;;14.90;41.40
70841;BME280;58465;51.534;9.934;2023-05-16T09:11:10;100092.34;;;15.43;41.01
70841;BME280;58465;51.534;9.934;2023-05-16T09:13:38;100094.50;;;15.35;41.11
70841;BME280;58465;51.534;9.934;2023-05-16T09:16:07;100098.38;;;15.06;41.34
70841;BME280;58465;51.534;9.934;2023-05-16T09:18:33;100098.22;;;15.09;41.17
70841;BME280;58465;51.534;9.934;2023-05-16T09:20:59;100085.28;;;14.97;41.78
70841;BME280;58465;51.534;9.934;2023-05-16T09:23:25;100094.16;;;15.21;41.94
70841;BME280;58465;51.534;9.934;2023-05-16T09:25:52;100094.44;;;15.37;41.04
70841;BME280;58465;51.534;9.934;2023-05-16T09:28:17;100086.84;;;15.68;40.92
70841;BME280;58465;51.534;9.934;2023-05-16T09:30:45;100089.34;;;15.73;40.15
70841;BME280;58465;51.534;9.934;2023-05-16T09:33:11;100087.69;;;16.50;39.43
70841;BME280;58465;51.534;9.934;2023-05-16T09:35:36;100085.72;;;16.53;40.46
70841;BME280;58465;51.534;9.934;2023-05-16T09:38:02;100097.84;;;15.84;40.63
70841;BME280;58465;51.534;9.934;2023-05-16T09:40:27;100090.78;;;16.02;41.07
70841;BME280;58465;51.534;9.934;2023-05-16T09:43:02;100091.16;;;15.29;42.43
70841;BME280;58465;51.534;9.934;2023-05-16T09:45:29;100092.25;;;15.25;42.68
70841;BME280;58465;51.534;9.934;2023-05-16T09:48:04;100085.78;;;15.72;40.94
70841;BME280;58465;51.534;9.934;2023-05-16T09:50:31;100087.09;;;15.40;41.59
70841;BME280;58465;51.534;9.934;2023-05-16T09:52:57;100076.91;;;16.11;40.16
70841;BME280;58465;51.534;9.934;2023-05-16T09:55:23;100086.19;;;15.63;40.52
70841;BME280;58465;51.534;9.934;2023-05-16T09:57:48;100087.44;;;15.54;41.21
70841;BME280;58465;51.534;9.934;2023-05-16T10:00:14;100084.16;;;15.88;41.14
70841;BME280;58465;51.534;9.934;2023-05-16T10:02:40;100082.56;;;16.44;40.74
70841;BME280;58465;51.534;9.934;2023-05-16T10:05:06;100073.03;;;15.96;40.94
70841;BME280;58465;51.534;9.934;2023-05-16T10:07:32;100072.44;;;15.69;41.60
70841;BME280;58465;51.534;9.934;2023-05-16T10:10:06;100072.91;;;15.37;41.79
70841;BME280;58465;51.534;9.934;2023-05-16T10:12:33;100064.84;;;15.79;40.12
70841;BME280;58465;51.534;9.934;2023-05-16T10:15:03;100074.09;;;15.93;38.65
70841;BME280;58465;51.534;9.934;2023-05-16T10:17:34;100069.69;;;16.11;38.82
70841;BME280;58465;51.534;9.934;2023-05-16T10:20:01;100069.06;;;16.25;38.56
70841;BME280;58465;51.534;9.934;2023-05-16T10:22:32;100068.97;;;16.47;36.65
70841;BME280;58465;51.534;9.934;2023-05-16T10:25:07;100074.78;;;16.77;37.47
70841;BME280;58465;51.534;9.934;2023-05-16T10:27:34;100082.22;;;17.09;37.04
70841;BME280;58465;51.534;9.934;2023-05-16T10:30:00;100079.72;;;17.40;36.85
70841;BME280;58465;51.534;9.934;2023-05-16T10:32:26;100083.75;;;16.57;37.91
70841;BME280;58465;51.534;9.934;2023-05-16T10:34:53;100076.53;;;16.39;37.43
70841;BME280;58465;51.534;9.934;2023-05-16T10:37:20;100086.03;;;16.27;36.28
70841;BME280;58465;51.534;9.934;2023-05-16T10:39:46;100084.81;;;16.34;36.51
70841;BME280;58465;51.534;9.934;2023-05-16T10:42:12;100083.13;;;16.52;35.57
70841;BME280;58465;51.534;9.934;2023-05-16T10:44:42;100083.88;;;16.93;34.75
70841;BME280;58465;51.534;9.934;2023-05-16T10:47:07;100082.06;;;16.93;34.17
70841;BME280;58465;51.534;9.934;2023-05-16T10:49:33;100084.63;;;16.57;35.70
70841;BME280;58465;51.534;9.934;2023-05-16T10:52:12;100086.41;;;17.15;35.28
70841;BME280;58465;51.534;9.934;2023-05-16T10:54:43;100100.59;;;17.20;34.23
70841;BME280;58465;51.534;9.934;2023-05-16T10:57:22;100082.81;;;16.58;35.27
70841;BME280;58465;51.534;9.934;2023-05-16T10:59:49;100093.50;;;16.41;35.85
70841;BME280;58465;51.534;9.934;2023-05-16T11:02:28;100090.19;;;16.34;35.64
70841;BME280;58465;51.534;9.934;2023-05-16T11:04:55;100089.00;;;16.61;34.33
70841;BME280;58465;51.534;9.934;2023-05-16T11:07:23;100088.19;;;16.78;34.16
70841;BME280;58465;51.534;9.934;2023-05-16T11:10:05;100087.41;;;17.31;34.29
70841;BME280;58465;51.534;9.934;2023-05-16T11:12:41;100099.63;;;17.57;33.47
70841;BME280;58465;51.534;9.934;2023-05-16T11:17:49;100100.13;;;17.29;34.13
70841;BME280;58465;51.534;9.934;2023-05-16T11:20:25;100102.72;;;17.68;33.12
70841;BME280;58465;51.534;9.934;2023-05-16T11:25:40;100100.09;;;17.48;35.10
70841;BME280;58465;51.534;9.934;2023-05-16T11:28:09;100091.09;;;17.11;33.68
70841;BME280;58465;51.534;9.934;2023-05-16T11:30:41;100103.84;;;17.26;33.63
70841;BME280;58465;51.534;9.934;2023-05-16T11:33:07;100092.81;;;17.31;34.14
70841;BME280;58465;51.534;9.934;2023-05-16T11:35:32;100101.00;;;16.73;34.77
70841;BME280;58465;51.534;9.934;2023-05-16T11:37:59;100102.47;;;17.18;34.75
70841;BME280;58465;51.534;9.934;2023-05-16T11:40:25;100089.91;;;19.36;31.37
70841;BME280;58465;51.534;9.934;2023-05-16T11:42:51;100082.44;;;19.71;29.50
70841;BME280;58465;51.534;9.934;2023-05-16T11:45:20;100096.56;;;18.83;30.04
70841;BME280;58465;51.534;9.934;2023-05-16T11:47:50;100085.72;;;18.83;31.43
70841;BME280;58465;51.534;9.934;2023-05-16T11:50:17;100090.41;;;17.61;31.89
70841;BME280;58465;51.534;9.934;2023-05-16T11:52:44;100085.72;;;19.31;29.60
70841;BME280;58465;51.534;9.934;2023-05-16T11:55:10;100092.06;;;20.93;27.10
70841;BME280;58465;51.534;9.934;2023-05-16T11:57:41;100093.00;;;18.66;29.71
70841;BME280;58465;51.534;9.934;2023-05-16T12:00:14;100090.22;;;18.67;29.99
70841;BME280;58465;51.534;9.934;2023-05-16T12:02:41;100084.97;;;20.91;27.07
70841;BME280;58465;51.534;9.934;2023-05-16T12:05:08;100089.91;;;22.45;25.62
70841;BME280;58465;51.534;9.934;2023-05-16T12:07:37;100093.47;;;21.27;27.09
70841;BME280;58465;51.534;9.934;2023-05-16T12:10:07;100086.81;;;20.48;28.18
70841;BME280;58465;51.534;9.934;2023-05-16T12:12:33;100091.94;;;21.23;27.87
70841;BME280;58465;51.534;9.934;2023-05-16T12:15:01;100080.44;;;20.19;28.11
70841;BME280;58465;51.534;9.934;2023-05-16T12:17:28;100081.41;;;18.46;29.69
70841;BME280;58465;51.534;9.934;2023-05-16T12:19:53;100079.63;;;18.30;30.46
70841;BME280;58465;51.534;9.934;2023-05-16T12:22:19;100081.38;;;20.48;29.18
70841;BME280;58465;51.534;9.934;2023-05-16T12:24:44;100085.81;;;23.75;23.97
70841;BME280;58465;51.534;9.934;2023-05-16T12:27:10;100079.22;;;23.66;22.60
70841;BME280;58465;51.534;9.934;2023-05-16T12:29:35;100089.59;;;27.21;18.60
70841;BME280;58465;51.534;9.934;2023-05-16T12:32:01;100088.44;;;28.12;18.44
70841;BME280;58465;51.534;9.934;2023-05-16T12:34:28;100094.78;;;29.07;17.69
70841;BME280;58465;51.534;9.934;2023-05-16T12:36:54;100087.25;;;31.47;15.41
70841;BME280;58465;51.534;9.934;2023-05-16T12:39:19;100083.19;;;34.14;13.14
70841;BME280;58465;51.534;9.934;2023-05-16T12:41:52;100093.91;;;27.14;18.66
70841;BME280;58465;51.534;9.934;2023-05-16T12:44:18;100086.53;;;23.65;23.12
70841;BME280;58465;51.534;9.934;2023-05-16T12:46:50;100102.34;;;20.74;28.11
70841;BME280;58465;51.534;9.934;2023-05-16T12:49:23;100093.13;;;19.43;29.85
70841;BME280;58465;51.534;9.934;2023-05-16T12:51:50;100102.16;;;21.46;26.68
70841;BME280;58465;51.534;9.934;2023-05-16T12:54:16;100082.38;;;27.99;19.72
70841;BME280;58465;51.534;9.934;2023-05-16T12:56:47;100085.22;;;30.81;16.59
70841;BME280;58465;51.534;9.934;2023-05-16T12:59:12;100090.22;;;27.34;18.37
70841;BME280;58465;51.534;9.934;2023-05-16T13:01:38;100098.63;;;21.59;22.93
70841;BME280;58465;51.534;9.934;2023-05-16T13:04:04;100094.25;;;23.72;21.65